createdAt,value
2023-02-19T00:00:07.448Z,273.7
2023-02-19T00:05:08.501Z,231
2023-02-19T00:10:06.638Z,225.2
2023-02-19T00:15:07.017Z,174.6
2023-02-19T00:20:06.397Z,235.9
2023-02-19T00:25:06.647Z,238.6
2023-02-19T00:30:06.775Z,234.1
2023-02-19T00:35:07.019Z,266.8
2023-02-19T00:40:06.484Z,256.2
2023-02-19T00:45:06.857Z,272.3
2023-02-19T00:50:06.164Z,237.5
2023-02-19T00:55:06.521Z,197.2
2023-02-19T01:00:07.167Z,226
2023-02-19T01:05:06.176Z,230.9
2023-02-19T01:10:06.591Z,238.8
2023-02-19T01:15:06.910Z,203.1
2023-02-19T01:20:06.195Z,208.1
2023-02-19T01:25:06.520Z,201
2023-02-19T01:30:06.984Z,185.6
2023-02-19T01:35:06.348Z,183
2023-02-19T01:40:06.660Z,187.5
2023-02-19T01:45:07.060Z,171.5
2023-02-19T01:50:06.555Z,167
2023-02-19T01:55:06.336Z,130.2
2023-02-19T02:00:06.841Z,121.9
2023-02-19T02:05:06.895Z,126
2023-02-19T02:10:06.320Z,138.6
2023-02-19T02:15:06.633Z,133.1
2023-02-19T02:20:06.713Z,122.4
2023-02-19T02:25:06.959Z,116.3
2023-02-19T02:30:07.044Z,92.8
2023-02-19T02:35:06.420Z,73.6
2023-02-19T02:40:06.155Z,73
2023-02-19T02:45:06.543Z,84.9
2023-02-19T02:50:06.890Z,73.4
2023-02-19T02:55:06.589Z,61.3
2023-02-19T03:00:06.171Z,78.4
2023-02-19T03:05:06.298Z,44.4
2023-02-19T03:10:06.738Z,56.8
2023-02-19T03:15:06.633Z,63.5
2023-02-19T03:20:06.486Z,61.1
2023-02-19T03:25:06.217Z,51.5
2023-02-19T03:30:07.038Z,39.5
2023-02-19T03:35:06.492Z,45.2
2023-02-19T03:40:06.239Z,37.1
2023-02-19T03:45:06.670Z,39.6
2023-02-19T03:50:06.701Z,39.7
2023-02-19T03:55:06.421Z,29.3
2023-02-19T04:00:07.151Z,45.4
2023-02-19T04:05:06.841Z,35.1
2023-02-19T04:10:06.789Z,28.3
2023-02-19T04:15:07.077Z,34.8
2023-02-19T04:20:06.244Z,43.8
2023-02-19T04:25:06.146Z,38.6
2023-02-19T04:30:06.870Z,27
2023-02-19T04:35:06.200Z,24
2023-02-19T04:40:06.581Z,24.6
2023-02-19T04:45:06.909Z,25.9
2023-02-19T04:50:06.327Z,21.1
2023-02-19T04:55:06.631Z,34.8
2023-02-19T05:00:06.894Z,40.4
2023-02-19T05:05:07.043Z,41.3
2023-02-19T05:10:06.397Z,23.7
2023-02-19T05:15:06.860Z,25.4
2023-02-19T05:20:06.189Z,23.3
2023-02-19T05:25:06.526Z,25.1
2023-02-19T05:30:06.839Z,24.4
2023-02-19T05:35:06.182Z,28.1
2023-02-19T05:40:06.530Z,47.5
2023-02-19T05:45:06.947Z,35.6
2023-02-19T05:50:06.395Z,35.8
2023-02-19T05:55:06.839Z,36.4
2023-02-19T06:00:06.242Z,26.1
2023-02-19T06:05:06.631Z,30.4
2023-02-19T06:10:07.108Z,40.3
2023-02-19T06:15:06.321Z,23.3
2023-02-19T06:20:06.776Z,30.8
2023-02-19T06:25:07.173Z,29.5
2023-02-19T06:30:06.425Z,37.4
2023-02-19T06:35:06.687Z,32.8
2023-02-19T06:40:07.087Z,35.5
2023-02-19T06:45:06.491Z,40
2023-02-19T06:50:06.868Z,23.5
2023-02-19T06:55:06.313Z,26.4
2023-02-19T07:00:06.896Z,30.6
2023-02-19T07:05:06.144Z,37.3
2023-02-19T07:10:06.574Z,37.8
2023-02-19T07:15:06.908Z,42.9
2023-02-19T07:20:06.284Z,41.2
2023-02-19T07:25:06.533Z,28.2
2023-02-19T07:30:06.916Z,29.3
2023-02-19T07:35:06.282Z,29.4
2023-02-19T07:40:06.440Z,38
2023-02-19T07:45:06.902Z,40.9
2023-02-19T07:50:06.165Z,45.1
2023-02-19T07:55:06.549Z,33.7
2023-02-19T08:00:06.986Z,42.4
2023-02-19T08:05:07.066Z,42.9
2023-02-19T08:10:06.789Z,48.9
2023-02-19T08:15:07.079Z,51.4
2023-02-19T08:20:06.387Z,44.9
2023-02-19T08:25:06.609Z,39.1
2023-02-19T08:30:06.995Z,40.4
2023-02-19T08:35:06.351Z,51.1
2023-02-19T08:40:06.751Z,39.4
2023-02-19T08:45:06.205Z,36.2
2023-02-19T08:50:06.498Z,38.9
2023-02-19T08:55:06.805Z,42.2
2023-02-19T09:00:06.440Z,37.7
2023-02-19T09:05:06.464Z,27.6
2023-02-19T09:10:06.992Z,46
2023-02-19T09:15:06.347Z,47.3
2023-02-19T09:20:06.717Z,35.6
2023-02-19T09:25:06.191Z,46.5
2023-02-19T09:30:06.461Z,41.8
2023-02-19T09:35:06.809Z,41.5
2023-02-19T09:40:06.103Z,44.4
2023-02-19T09:45:07.086Z,34.3
2023-02-19T09:50:06.353Z,29.3
2023-02-19T09:55:06.163Z,22.2
2023-02-19T10:00:06.878Z,26.2
2023-02-19T10:05:07.067Z,25.2
2023-02-19T10:10:06.240Z,28.5
2023-02-19T10:15:06.574Z,31.8
2023-02-19T10:20:06.068Z,27.1
2023-02-19T10:25:06.511Z,19.2
2023-02-19T10:30:06.809Z,25.3
2023-02-19T10:35:06.246Z,26.4
2023-02-19T10:40:06.365Z,34.3
2023-02-19T10:45:06.663Z,30.2
2023-02-19T10:50:06.910Z,28.6
2023-02-19T10:55:06.419Z,26.7
2023-02-19T11:00:06.897Z,31.1
2023-02-19T11:05:07.006Z,35
2023-02-19T11:10:07.021Z,21.5
2023-02-19T11:15:06.940Z,28.5
2023-02-19T11:20:06.211Z,18.2
2023-02-19T11:25:06.579Z,19.2
2023-02-19T11:30:06.811Z,26.2
2023-02-19T11:35:06.137Z,15.1
2023-02-19T11:40:06.623Z,17.2
2023-02-19T11:45:06.423Z,12.3
2023-02-19T11:50:06.201Z,16.1
2023-02-19T11:55:06.992Z,13.4
2023-02-19T12:00:06.721Z,16.9
2023-02-19T12:05:06.171Z,10.8
2023-02-19T12:10:06.976Z,15.5
2023-02-19T12:15:06.178Z,10
2023-02-19T12:20:06.550Z,11.4
2023-02-19T12:25:06.343Z,15.4
2023-02-19T12:30:06.938Z,16
2023-02-19T12:35:06.601Z,16.5
2023-02-19T12:40:06.326Z,16.6
2023-02-19T12:45:07.009Z,26.5
2023-02-19T12:50:06.195Z,38.6
2023-02-19T12:55:06.847Z,15.5
2023-02-19T13:00:07.108Z,21.5
2023-02-19T13:05:06.382Z,15.1
2023-02-19T13:10:06.115Z,13.8
2023-02-19T13:15:06.191Z,11.6
2023-02-19T13:20:06.967Z,12.4
2023-02-19T13:25:06.245Z,9.5
2023-02-19T13:30:07.069Z,13.9
2023-02-19T13:35:06.290Z,20.5
2023-02-19T13:40:06.306Z,12.8
2023-02-19T13:45:06.683Z,9.6
2023-02-19T13:50:06.317Z,20.3
2023-02-19T13:55:06.664Z,8.9
2023-02-19T14:00:07.109Z,17.8
2023-02-19T14:05:06.300Z,9
2023-02-19T14:10:06.910Z,8.4
2023-02-19T14:15:06.669Z,11.5
2023-02-19T14:20:06.330Z,17.5
2023-02-19T14:25:06.676Z,26.6
2023-02-19T14:30:06.849Z,17.7
2023-02-19T14:35:06.299Z,23
2023-02-19T14:40:06.691Z,10.7
2023-02-19T14:45:06.332Z,22.4
2023-02-19T14:50:06.177Z,31.6
2023-02-19T14:55:06.420Z,38.9
2023-02-19T15:00:06.939Z,39.6
2023-02-19T15:05:06.205Z,26.9
2023-02-19T15:10:06.527Z,25.7
2023-02-19T15:15:07.107Z,27.5
2023-02-19T15:20:06.984Z,17.3
2023-02-19T15:25:06.697Z,35.5
2023-02-19T15:30:06.311Z,25.8
2023-02-19T15:35:06.793Z,25
2023-02-19T15:40:06.257Z,14.2
2023-02-19T15:45:06.584Z,13.4
2023-02-19T15:50:06.683Z,17.9
2023-02-19T15:55:06.360Z,40.3
2023-02-19T16:00:06.966Z,40.5
2023-02-19T16:05:07.042Z,39.6
2023-02-19T16:10:06.268Z,56.3
2023-02-19T16:15:06.564Z,43.8
2023-02-19T16:20:06.920Z,52.2
2023-02-19T16:25:06.238Z,41
2023-02-19T16:30:07.049Z,47
2023-02-19T16:35:06.471Z,30.1
2023-02-19T16:40:06.908Z,42.4
2023-02-19T16:45:06.688Z,91.8
2023-02-19T16:50:06.096Z,86.9
2023-02-19T16:55:06.445Z,95.6
2023-02-19T17:00:06.789Z,33.6
2023-02-19T17:05:06.902Z,26.4
2023-02-19T17:10:06.334Z,21.5
2023-02-19T17:15:06.745Z,19.8
2023-02-19T17:20:07.074Z,29.8
2023-02-19T17:25:06.366Z,18.9
2023-02-19T17:30:06.666Z,37.7
2023-02-19T17:35:07.056Z,50.6
2023-02-19T17:40:06.573Z,31.5
2023-02-19T17:45:06.858Z,31.7
2023-02-19T17:50:06.228Z,16.1
2023-02-19T17:55:06.515Z,13
2023-02-19T18:00:06.990Z,10
2023-02-19T18:05:06.247Z,19.4
2023-02-19T18:10:06.596Z,27.7
2023-02-19T18:15:07.005Z,22.9
2023-02-19T18:20:06.342Z,17.7
2023-02-19T18:25:06.653Z,20.3
2023-02-19T18:30:07.089Z,24
2023-02-19T18:35:06.622Z,25
2023-02-19T18:40:06.699Z,24.9
2023-02-19T18:45:07.055Z,30.1
2023-02-19T18:50:06.362Z,31.4
2023-02-19T18:55:06.558Z,24.4
2023-02-19T19:00:06.906Z,27.9
2023-02-19T19:05:07.100Z,50.1
2023-02-19T19:10:06.549Z,27.2
2023-02-19T19:15:06.886Z,26.7
2023-02-19T19:20:06.224Z,28.6
2023-02-19T19:25:06.517Z,18.9
2023-02-19T19:30:06.980Z,19
2023-02-19T19:35:06.375Z,25.3
2023-02-19T19:40:06.764Z,15.1
2023-02-19T19:45:06.206Z,12.6
2023-02-19T19:50:06.501Z,21.9
2023-02-19T19:55:06.806Z,17.3
2023-02-19T20:00:06.217Z,19.4
2023-02-19T20:05:06.244Z,26.3
2023-02-19T20:10:06.617Z,43.2
2023-02-19T20:15:06.923Z,31.4
2023-02-19T20:20:06.233Z,34
2023-02-19T20:25:06.580Z,24.2
2023-02-19T20:30:06.845Z,25.9
2023-02-19T20:35:06.192Z,29.1
2023-02-19T20:40:06.706Z,27.9
2023-02-19T20:45:07.036Z,27.9
2023-02-19T20:50:06.306Z,25.4
2023-02-19T20:55:06.639Z,30.5
2023-02-19T21:00:07.071Z,43.9
2023-02-19T21:05:06.102Z,29.6
2023-02-19T21:10:06.395Z,34
2023-02-19T21:15:06.672Z,27
2023-02-19T21:20:06.176Z,37.5
2023-02-19T21:25:06.500Z,37.4
2023-02-19T21:30:06.861Z,38.2
2023-02-19T21:35:06.156Z,28.3
2023-02-19T21:40:06.467Z,32.6
2023-02-19T21:45:06.824Z,23.9
2023-02-19T21:50:06.174Z,31.1
2023-02-19T21:55:06.595Z,38.9
2023-02-19T22:00:07.126Z,39.5
2023-02-19T22:05:07.036Z,46.7
2023-02-19T22:10:06.494Z,31
2023-02-19T22:15:06.776Z,25
2023-02-19T22:20:06.136Z,27.7
2023-02-19T22:25:06.424Z,17.5
2023-02-19T22:30:06.679Z,24.7
2023-02-19T22:35:07.097Z,21.3
2023-02-19T22:40:06.585Z,31
2023-02-19T22:45:06.842Z,43.6
2023-02-19T22:50:06.260Z,39.8
2023-02-19T22:55:06.663Z,37.7
2023-02-19T23:00:06.995Z,44.3
2023-02-19T23:05:07.072Z,38.4
2023-02-19T23:10:06.624Z,37.4
2023-02-19T23:15:06.934Z,60.6
2023-02-19T23:20:06.270Z,55.6
2023-02-19T23:25:06.642Z,58.2
2023-02-19T23:30:07.042Z,56.4
2023-02-19T23:35:06.324Z,57.5
2023-02-19T23:40:06.667Z,66.8
2023-02-19T23:45:06.093Z,40.4
2023-02-19T23:50:06.340Z,37.6
2023-02-19T23:55:06.675Z,31.4
